Tiempo atmosférico en la estación meteorológica de Boadilla Fuente San Esteban, Salamanca (785 m.)



Fecha
DESCASC
Temp. máxima en grados centígrados (hora)
DESCASC
Temp. mínima en grados centígrados (hora)
DESCASC
Temp. media en grados centígrados
DESCASC
Racha de viento máxima en m/sg (hora)
DESCASC
Velocidad máxima media en intervalos de 10 minutos(hora)
DESCASC
Precipitaciones diarias en mm
DESCASC
Precipitaciones de 00:00 a 06:00 en mm
DESCASC
Precipitaciones de 06:00 a 12:00 en mm
DESCASC
Precipitaciones de 12:00 a 18:00 en mm
DESCASC
Precipitaciones de 18:00 a 24:00 en mm
DESCASC
19-01-2020 7.8 (13:40) 0.8 (23:59) 4.3 20 (15:00) 14.44 (15:00) 0.2 0.2 0 0 0
18-01-2020 12.4 (14:20) 4.2 (00:00) 8.3 16.39 (16:30) 8.61 (16:00) 10.2 8.2 0.2 0 1.8
17-01-2020 10.2 (15:20) 4.2 (23:40) 7.2 10 (07:00) 6.39 (06:00) 0.4 0 0.2 0.2 0
16-01-2020 11.1 (16:20) 6.5 (00:00) 8.8 13.61 (14:40) 9.17 (14:40) 2.2 0 0 0 2.2
15-01-2020 11.8 (15:50) 7 (00:00) 9.4 13.33 (07:00) 8.61 (14:30) 1 0 1 0 0
14-01-2020 8.6 (15:50) -1.5 (-00:0) 3.6 12.5 (23:30) 8.06 (23:20) 0 0 0 0 0
13-01-2020 10.2 (16:10) -4.8 (-00:0) 2.7 7.5 (16:30) 4.17 (15:30) 0 0 0 0 0
12-01-2020 8.1 (16:30) -5 (08:00) 1.6 3.33 (14:00) 2.22 (19:30) 0.2 0 0.2 0 0
11-01-2020 6.6 (16:50) -2.9 (-00:0) 1.8 5.28 (14:00) 4.44 (14:00) 0.2 0 0.2 0 0
10-01-2020 7.5 (15:40) -2.8 (-00:0) 2.4 9.17 (14:10) 6.39 (13:40) 0.2 0.2 0 0 0
09-01-2020 11.4 (17:00) -1.5 (-00:0) 4.9 10.56 (19:00) 6.94 (19:00) 0 0 0 0 0
08-01-2020 10.5 (15:40) -4.7 (-00:0) 2.9 3.89 (14:40) 3.06 (15:50) 0 0 0 0 0
07-01-2020 8.3 (16:30) -3.2 (-00:0) 2.6 3.61 (03:20) 2.5 (03:30) 0.2 0 0.2 0 0
06-01-2020 8.1 (17:00) -3.6 (-00:0) 2.3 4.17 (14:30) 2.78 (14:30) 0 0 0 0 0
05-01-2020 2.3 (14:10) 0.3 (00:00) 1.3 6.39 (04:30) 4.44 (03:30) 0 0 0 0 0
04-01-2020 6 (14:10) 0.1 (00:00) 3.1 9.44 (19:30) 7.22 (17:10) 0 0 0 0 0
03-01-2020 9.4 (15:30) 3.3 (00:00) 6.3 4.72 (14:30) 3.33 (14:20) 0 0 0 0 0
02-01-2020 13 (15:20) -2 (-00:0) 5.5 5 (14:50) 3.06 (05:20) 0 0 0 0 0
01-01-2020 13.8 (15:40) -2.9 (-00:0) 5.5 3.33 (21:10) 2.5 (21:20) 0 0 0 0 0
31-12-2019 13.9 (16:50) -2.5 (-00:0) 5.7 2.5 (03:30) 1.94 (22:10) 0 0 0 0 0
30-12-2019 -- (--) -- (--) -- -- (--) -- (--) -- 0 0 -- 0
29-12-2019 14 (15:00) -0.9 (-00:0) 6.6 3.89 (15:10) 3.33 (15:10) 0 0 0 0 0
28-12-2019 9.4 (16:40) -1.6 (-00:0) 3.9 4.72 (18:40) 3.61 (18:40) 0.2 0 0.2 0 0
27-12-2019 5.4 (16:30) 0.6 (00:00) 3 6.67 (05:40) 4.44 (05:40) 0 0 0 0 0
26-12-2019 10.1 (16:10) 3.2 (00:00) 6.7 6.67 (16:10) 5 (16:20) 0 0 0 0 0
25-12-2019 14.2 (16:20) 2.2 (00:00) 8.2 5.28 (06:40) 3.89 (06:40) 0.2 0 0.2 0 0
24-12-2019 15 (15:50) 3.9 (03:50) 9.5 4.17 (02:00) 3.33 (02:00) 0 0 0 0 0
23-12-2019 13 (15:50) 2.7 (00:00) 7.9 4.72 (14:50) 3.61 (14:50) 0 0 0 0 0

Gráficas

Temp. máximas Temp. mínimas Temp. medias Precipitaciones Rachas de viento máximas Velocidades máximas media en intervalos de 10 minutos

Datos horarios

Fecha y hora oficial Temperatura (ºC) Velocidad del viento (km/h) Dirección del viento Racha (km/h) Dirección de racha Precipitación (mm) Presión (hPa) Tendencia (hPa) Humedad (%)
2020-01-21 23:00:00 2.9 24 Nordeste 38 Este 0 -- -- 88
2020-01-21 22:00:00 2.8 24 Nordeste 39 Nordeste 0 -- -- 87
2020-01-21 21:00:00 2.8 21 Nordeste 48 Nordeste 0 -- -- 88
2020-01-21 20:00:00 3.3 25 Nordeste 42 Nordeste 0 -- -- 87
2020-01-21 19:00:00 4 29 Nordeste 50 Nordeste 0 -- -- 82
2020-01-21 18:00:00 4.4 32 Nordeste 46 Nordeste 0 -- -- 79
2020-01-21 17:00:00 4.6 33 Nordeste 51 Este 0 -- -- 78
2020-01-21 16:00:00 4.6 24 Nordeste 36 Nordeste 0 -- -- 77
2020-01-21 15:00:00 4 18 Nordeste 41 Nordeste 0 -- -- 80
2020-01-21 14:00:00 3.4 21 Este 34 Este 0 -- -- 81
2020-01-21 13:00:00 2.8 27 Nordeste 58 Nordeste 0 -- -- 80
2020-01-21 12:00:00 2.7 39 Nordeste 54 Nordeste 0 -- -- 78
2020-01-21 11:00:00 1.8 27 Nordeste 42 Nordeste 0 -- -- 80
2020-01-21 10:00:00 -0.8 23 Nordeste 32 Nordeste 0 -- -- 87
2020-01-21 09:00:00 -1.5 17 Nordeste 27 Nordeste 0 -- -- 89
2020-01-21 08:00:00 -1.1 13 Nordeste 23 Nordeste 0 -- -- 87
2020-01-21 07:00:00 -1.3 8 Nordeste 30 Nordeste 0 -- -- 89
2020-01-21 06:00:00 -1 21 Nordeste 39 Nordeste 0 -- -- 88
2020-01-21 05:00:00 -0.4 26 Nordeste 34 Nordeste 0 -- -- 87
2020-01-21 04:00:00 -0.7 21 Nordeste 37 Nordeste 0 -- -- 87
2020-01-21 03:00:00 -0.8 24 Nordeste 37 Nordeste 0 -- -- 88
2020-01-21 02:00:00 -0.6 24 Nordeste 39 Nordeste 0 -- -- 89
2020-01-21 01:00:00 -0.6 23 Nordeste 45 Nordeste 0 -- -- 90
2020-01-21 00:00:00 -0.4 24 Nordeste 42 Nordeste 0 -- -- 88
2020-01-20 23:00:00 -0.2 25 Nordeste 50 Nordeste 0 -- -- 86
2020-01-20 22:00:00 0 15 Nordeste 32 Nordeste 0 -- -- 78
2020-01-20 21:00:00 0.7 21 Nordeste 33 Este 0 -- -- 73
2020-01-20 20:00:00 1.2 25 Nordeste 38 Nordeste 0 -- -- 71
2020-01-20 19:00:00 1.7 26 Nordeste 40 Nordeste 0 -- -- 68
2020-01-20 18:00:00 2.2 22 Nordeste 42 Nordeste 0 -- -- 65
2020-01-20 17:00:00 2.9 31 Nordeste 51 Nordeste 0 -- -- 60
2020-01-20 16:00:00 3 31 Nordeste 52 Nordeste 0 -- -- 61
2020-01-20 15:00:00 3.3 36 Nordeste 59 Nordeste 0 -- -- 57
2020-01-20 14:00:00 2 36 Nordeste 62 Nordeste 0 -- -- 63
2020-01-20 13:00:00 1.6 42 Nordeste 76 Nordeste 0 -- -- 63
2020-01-20 12:00:00 1.4 45 Nordeste 68 Nordeste 0 -- -- 64
2020-01-20 11:00:00 0.7 45 Nordeste 65 Nordeste 0 -- -- 68
2020-01-20 10:00:00 -0.4 27 Nordeste 44 Nordeste 0 -- -- 74
2020-01-20 09:00:00 -1.1 25 Nordeste 45 Nordeste 0 -- -- 76
2020-01-20 08:00:00 -1.1 29 Nordeste 40 Nordeste 0 -- -- 77
2020-01-20 07:00:00 -0.8 27 Nordeste 45 Nordeste 0 -- -- 75
2020-01-20 06:00:00 -0.7 27 Nordeste 51 Nordeste 0 -- -- 74
2020-01-20 05:00:00 -0.4 32 Nordeste 50 Nordeste 0 -- -- 71
2020-01-20 04:00:00 -0.1 35 Nordeste 57 Nordeste 0 -- -- 69
2020-01-20 03:00:00 0.3 39 Nordeste 59 Nordeste 0 -- -- 67
2020-01-20 02:00:00 0.3 33 Nordeste 46 Norte 0 -- -- 73
2020-01-20 01:00:00 0.4 26 Nordeste 54 Nordeste 0 -- -- 74
2020-01-20 00:00:00 0.8 28 Nordeste 60 Nordeste 0 -- -- 71
2020-01-19 23:00:00 1.2 38 Nordeste 56 Nordeste 0 -- -- 65
2020-01-19 22:00:00 1.3 40 Nordeste 69 Nordeste 0 -- -- 64
2020-01-19 21:00:00 1.6 39 Nordeste 64 Nordeste 0 -- -- 62
2020-01-19 20:00:00 2.5 40 Nordeste 67 Nordeste 0 -- -- 56
2020-01-19 19:00:00 3.4 42 Nordeste 66 Nordeste 0 -- -- 54
2020-01-19 18:00:00 5.1 40 Nordeste 67 Nordeste 0 -- -- 53
2020-01-19 17:00:00 6.7 36 Nordeste 66 Nordeste 0 -- -- 50
2020-01-19 16:00:00 7.4 45 Nordeste 69 Norte 0 -- -- 51
2020-01-19 15:00:00 7.7 52 Nordeste 72 Nordeste 0 -- -- 48
2020-01-19 14:00:00 7.6 49 Nordeste 69 Nordeste 0 -- -- 50
2020-01-19 13:00:00 7.1 41 Nordeste 62 Nordeste 0 -- -- 61
2020-01-19 12:00:00 6.6 36 Nordeste 56 Nordeste 0 -- -- 73
2020-01-19 11:00:00 5.7 17 Nordeste 27 Nordeste 0 -- -- 88
2020-01-19 10:00:00 3.4 10 Nordeste 16 Nordeste 0 -- -- 100
2020-01-19 09:00:00 2.7 4 Este 12 Nordeste 0 -- -- 99
2020-01-19 08:00:00 2.4 6 Nordeste 10 Nordeste 0 -- -- 100
2020-01-19 07:00:00 3 6 Nordeste 9 Este 0 -- -- 99
2020-01-19 06:00:00 3.1 0 Calma 9 Norte 0 -- -- 98
2020-01-19 05:00:00 3.3 4 Norte 7 Norte 0 -- -- 98
2020-01-19 04:00:00 3.8 3 Norte 14 Noroeste 0 -- -- 97
2020-01-19 03:00:00 4.7 10 Oeste 18 Oeste 0 -- -- 97
2020-01-19 02:00:00 4.7 4 Oeste 17 Sudoeste 0 -- -- 96
2020-01-19 01:00:00 5.1 7 Oeste 18 Oeste 0.2 -- -- 95
2020-01-19 00:00:00 5.2 7 Oeste 18 Oeste 0 -- -- 94
2020-01-18 23:00:00 5.1 12 Oeste 25 Oeste 0 -- -- 91
2020-01-18 22:00:00 5.3 15 Oeste 35 Oeste 0.2 -- -- 89
2020-01-18 21:00:00 6.3 15 Oeste 36 Oeste 1.4 -- -- 94
2020-01-18 20:00:00 8.6 17 Oeste 39 Oeste 0.2 -- -- 82
2020-01-18 19:00:00 9.4 20 Oeste 43 Sudoeste 0 -- -- 79
2020-01-18 18:00:00 10 25 Sudoeste 42 Sudoeste 0 -- -- 85
2020-01-18 17:00:00 11 27 Sudoeste 59 Sudoeste 0 -- -- 82
2020-01-18 16:00:00 11.6 31 Sudoeste 50 Sudoeste 0 -- -- 80
2020-01-18 15:00:00 11.8 30 Sudoeste 48 Sudoeste 0 -- -- 79
2020-01-18 14:00:00 12.2 27 Sudoeste 46 Sudoeste 0 -- -- 75
2020-01-18 13:00:00 11.8 27 Sudoeste 38 Sudoeste 0 -- -- 77
2020-01-18 12:00:00 10.5 19 Sudoeste 35 Sur 0 -- -- 82
2020-01-18 11:00:00 9.5 17 Sur 27 Sur 0 -- -- 87
2020-01-18 10:00:00 8.2 19 Sur 30 Sur 0 -- -- 89
2020-01-18 09:00:00 7.8 13 Sur 29 Sur 0 -- -- 90
2020-01-18 08:00:00 6.7 11 Sudeste 28 Sudeste 0 -- -- 92
2020-01-18 07:00:00 6.5 18 Sur 28 Sur 0.2 -- -- 91
2020-01-18 06:00:00 6.2 15 Sur 30 Sur 4.2 -- -- 95
2020-01-18 05:00:00 5.1 15 Sur 26 Sur 2.6 -- -- 97
2020-01-18 04:00:00 5.3 0 Calma 4 Este 1.4 -- -- 94
2020-01-18 03:00:00 5.3 0 Calma 11 Sudeste 0 -- -- 91
2020-01-18 02:00:00 5.5 7 Sudeste 12 Sudoeste 0 -- -- 90
2020-01-18 01:00:00 4.8 6 Sudoeste 10 Sudoeste 0 -- -- 92
2020-01-18 00:00:00 4.2 0 Calma 6 Oeste 0 -- -- 91
2020-01-17 23:00:00 4.7 5 Sudeste 7 Este 0 -- -- 87
2020-01-17 22:00:00 5.6 5 Sudeste 13 Este 0 -- -- 83
2020-01-17 21:00:00 5.6 8 Sudeste 14 Sudeste 0 -- -- 83
2020-01-17 20:00:00 5.1 3 Este 6 Este 0 -- -- 83
2020-01-17 19:00:00 6.6 3 Sudoeste 5 Sudoeste 0 -- -- 74
2020-01-17 18:00:00 8.6 3 Oeste 9 Oeste 0 -- -- 66
2020-01-17 17:00:00 9.4 7 Oeste 21 Oeste 0 -- -- 61
2020-01-17 16:00:00 9.7 12 Oeste 26 Oeste 0 -- -- 63
2020-01-17 15:00:00 9.5 12 Oeste 23 Sudoeste 0.2 -- -- 66
2020-01-17 14:00:00 9.2 10 Oeste 23 Oeste 0 -- -- 73
2020-01-17 13:00:00 8.5 15 Oeste 25 Oeste 0 -- -- 75
2020-01-17 12:00:00 8.3 12 Sudoeste 18 Sudoeste 0 -- -- 84
2020-01-17 11:00:00 7.2 12 Sudoeste 18 Sudoeste 0 -- -- 95
2020-01-17 10:00:00 6.8 8 Sudoeste 15 Sudoeste 0 -- -- 98
2020-01-17 09:00:00 6.4 12 Sudoeste 19 Sudoeste 0 -- -- 97
2020-01-17 08:00:00 6.4 14 Sudoeste 29 Sudoeste 0 -- -- 96
2020-01-17 07:00:00 6.8 21 Sudoeste 36 Sudoeste 0.2 -- -- 93
2020-01-17 06:00:00 6.8 23 Sudoeste 36 Sudoeste 0 -- -- 91
2020-01-17 05:00:00 6.4 17 Sudoeste 28 Sur 0 -- -- 91
2020-01-17 04:00:00 6.3 16 Sur 27 Sudoeste 0 -- -- 89
2020-01-17 03:00:00 5.5 11 Sur 18 Sur 0 -- -- 91
2020-01-17 02:00:00 5.3 10 Sudoeste 19 Sudoeste 0 -- -- 94
2020-01-17 01:00:00 5.9 10 Sudoeste 18 Sudoeste 0 -- -- 95
2020-01-17 00:00:00 6.5 9 Sudoeste 21 Sudoeste 0 -- -- 95
2020-01-16 23:00:00 7.6 11 Sudoeste 40 Sudoeste 1.4 -- -- 95
2020-01-16 22:00:00 8.4 20 Sudoeste 36 Sudoeste 0.2 -- -- 88
2020-01-16 21:00:00 8.8 16 Sudoeste 34 Sudoeste 0.2 -- -- 83
2020-01-16 20:00:00 9.2 21 Sur 39 Sur 0.4 -- -- 76
2020-01-16 19:00:00 9.4 23 Sudoeste 42 Sudoeste 0 -- -- 72
2020-01-16 18:00:00 9.3 21 Sur 40 Sur 0 -- -- 69
2020-01-16 17:00:00 10.6 28 Sur 47 Sudoeste 0 -- -- 62
2020-01-16 16:00:00 10.8 30 Sur 46 Sur 0 -- -- 64
2020-01-16 15:00:00 10.4 30 Sudoeste 49 Sur 0 -- -- 66
2020-01-16 14:00:00 10.8 26 Sudoeste 43 Sur 0 -- -- 64
2020-01-16 13:00:00 10.6 24 Sudoeste 42 Sudoeste 0 -- -- 66
2020-01-16 12:00:00 10.8 21 Sur 39 Sudoeste 0 -- -- 70
2020-01-16 11:00:00 9.7 21 Sudoeste 36 Sur 0 -- -- 77
2020-01-16 10:00:00 8.6 19 Sudoeste 31 Sur 0 -- -- 83
2020-01-16 09:00:00 8.8 16 Sur 31 Sur 0 -- -- 88
2020-01-16 08:00:00 8.9 13 Sur 30 Sur 0 -- -- 90
2020-01-16 07:00:00 8.7 18 Sur 30 Sudoeste 0 -- -- 90
2020-01-16 06:00:00 8.4 12 Sur 28 Sur 0 -- -- 89
2020-01-16 05:00:00 8.9 20 Sur 34 Sudoeste 0 -- -- 88
2020-01-16 04:00:00 8.9 20 Sur 30 Sur 0 -- -- 88
2020-01-16 03:00:00 8.9 22 Sur 40 Sur 0 -- -- 87
2020-01-16 02:00:00 9 27 Sur 38 Sur 0 -- -- 85
2020-01-16 01:00:00 9.6 19 Sur 30 Sur 0 -- -- 84
2020-01-16 00:00:00 9.4 20 Sur 31 Sur 0 -- -- 86
2020-01-15 23:00:00 9.4 17 Sur 28 Sudeste 0 -- -- 87
2020-01-15 22:00:00 8.7 7 Sudeste 10 Sur 0 -- -- 90
2020-01-15 21:00:00 8.9 7 Sur 17 Sur 0 -- -- 90
2020-01-15 20:00:00 9 9 Sur 16 Sur 0 -- -- 88
2020-01-15 19:00:00 8.9 10 Sur 29 Sur 0 -- -- 87
2020-01-15 18:00:00 10.2 17 Sur 32 Sudoeste 0 -- -- 83
2020-01-15 17:00:00 10.6 20 Sudoeste 38 Sudoeste 0 -- -- 80
2020-01-15 16:00:00 11.6 25 Sur 42 Sur 0 -- -- 76
2020-01-15 15:00:00 11.2 25 Sudoeste 48 Sur 0 -- -- 77
2020-01-15 14:00:00 10.7 19 Sur 40 Sur 0 -- -- 81
2020-01-15 13:00:00 10.5 23 Sur 36 Sur 0 -- -- 82
2020-01-15 12:00:00 8.7 15 Sur 30 Sur 0.4 -- -- 91
2020-01-15 11:00:00 7.8 15 Sur 35 Sur 0.6 -- -- 91
2020-01-15 10:00:00 7.8 23 Sur 35 Sur 0 -- -- 85
2020-01-15 09:00:00 7.3 18 Sur 39 Sur 0 -- -- 86
2020-01-15 08:00:00 7.1 21 Sur 48 Sudoeste 0 -- -- 85
2020-01-15 07:00:00 7.6 23 Sur 48 Sur 0 -- -- 82
2020-01-15 06:00:00 7.5 20 Sur 35 Sur 0 -- -- 84
2020-01-15 05:00:00 7.7 18 Sur 32 Sur 0 -- -- 84
2020-01-15 04:00:00 7.7 17 Sur 41 Sur 0 -- -- 81
2020-01-15 03:00:00 7.6 23 Sur 37 Sudoeste 0 -- -- 83
2020-01-15 02:00:00 7.3 21 Sudoeste 43 Sur 0 -- -- 84
2020-01-15 01:00:00 7.7 23 Sur 41 Sur 0 -- -- 85
2020-01-15 00:00:00 7.4 17 Sur 45 Sur 0 -- -- 85
2020-01-14 23:00:00 7.5 26 Sur 41 Sur 0 -- -- 83
2020-01-14 22:00:00 7.4 26 Sur 42 Sur 0 -- -- 83
2020-01-14 21:00:00 7.3 24 Sur 37 Sur 0 -- -- 83
2020-01-14 20:00:00 6.6 14 Sur 31 Sur 0 -- -- 84
2020-01-14 19:00:00 7 15 Sudoeste 25 Sur 0 -- -- 83
2020-01-14 18:00:00 7 11 Sur 31 Sur 0 -- -- 81
2020-01-14 17:00:00 7.5 17 Sur 41 Sudoeste 0 -- -- 79
2020-01-14 16:00:00 8.2 19 Sudoeste 28 Sudoeste 0 -- -- 78
2020-01-14 15:00:00 7 17 Sudoeste 28 Sur 0 -- -- 81
2020-01-14 14:00:00 6.7 15 Sudoeste 28 Sudoeste 0 -- -- 82
2020-01-14 13:00:00 7 7 Sudoeste 19 Sur 0 -- -- 81
2020-01-14 12:00:00 5.9 6 Sudoeste 13 Sudoeste 0 -- -- 86
2020-01-14 11:00:00 5.2 5 Sudoeste 9 Sur 0 -- -- 88
2020-01-14 10:00:00 4.4 5 Sur 15 Sudeste 0 -- -- 88
2020-01-14 09:00:00 2.3 9 Sur 14 Sur 0 -- -- 92
2020-01-14 08:00:00 2.9 12 Sur 19 Sudeste 0 -- -- 88
2020-01-14 07:00:00 3.1 14 Sur 23 Sudeste 0 -- -- 88
2020-01-14 06:00:00 1.9 12 Sudeste 20 Sudeste 0 -- -- 90
2020-01-14 05:00:00 1.9 9 Sur 15 Sur 0 -- -- 94
2020-01-14 04:00:00 1.2 8 Sudoeste 14 Sudoeste 0 -- -- 95
2020-01-14 03:00:00 -0.2 4 Sudoeste 8 Oeste 0 -- -- 96
2020-01-14 02:00:00 -0.3 0 Calma 12 Sudoeste 0 -- -- 91
2020-01-14 01:00:00 0 3 Sur 16 Sur 0 -- -- 91
2020-01-14 00:00:00 0.2 8 Sur 11 Sur 0 -- -- 89
2020-01-13 23:00:00 0.4 7 Sur 10 Sur 0 -- -- 89
2020-01-13 22:00:00 1.5 3 Sudoeste 13 Sudoeste 0 -- -- 85
2020-01-13 21:00:00 0.7 0 Calma 15 Noroeste 0 -- -- 86
2020-01-13 20:00:00 3.1 11 Sur 14 Sur 0 -- -- 77
2020-01-13 19:00:00 4.9 9 Sudoeste 14 Sudoeste 0 -- -- 64
2020-01-13 18:00:00 7.5 7 Sudoeste 22 Sudoeste 0 -- -- 56
2020-01-13 17:00:00 9.3 12 Sudoeste 27 Sudoeste 0 -- -- 48
2020-01-13 16:00:00 9.9 12 Sudoeste 24 Sudoeste 0 -- -- 48
2020-01-13 15:00:00 9.8 10 Oeste 21 Sudoeste 0 -- -- 55
2020-01-13 14:00:00 8.6 9 Sudoeste 18 Sur 0 -- -- 64
2020-01-13 13:00:00 5.6 9 Sudoeste 17 Sudoeste 0 -- -- 80
2020-01-13 12:00:00 1.3 4 Sudoeste 7 Oeste 0 -- -- 94
2020-01-13 11:00:00 -1.5 4 Noroeste 8 Noroeste 0 -- -- 96
2020-01-13 10:00:00 -2 3 Sudeste 6 Sudeste 0 -- -- 98
2020-01-13 09:00:00 -4.8 0 Calma 2 Sur 0 -- -- 94
2020-01-13 08:00:00 -4.5 3 Norte 6 Sudeste 0 -- -- 94
2020-01-13 07:00:00 -3.9 2 Este 7 Este 0 -- -- 96
2020-01-13 06:00:00 -4.3 4 Este 5 Este 0 -- -- 96
2020-01-13 05:00:00 -4 3 Sudeste 4 Sudeste 0 -- -- 96
2020-01-13 04:00:00 -3.4 0 Calma 5 Sudeste 0 -- -- 96
2020-01-13 03:00:00 -3.4 4 Sudeste 6 Este 0 -- -- 96
2020-01-13 02:00:00 -3.6 0 Calma 2 Este 0 -- -- 96
2020-01-13 01:00:00 -2.9 0 Calma 3 Este 0 -- -- 96
2020-01-13 00:00:00 -2.3 0 Calma 5 Este 0 -- -- 95
2020-01-12 23:00:00 -1.8 0 Calma 3 Nordeste 0 -- -- 94
2020-01-12 22:00:00 -0.2 3 Este 6 Este 0 -- -- 93
2020-01-12 21:00:00 0.7 2 Este 8 Este 0 -- -- 90
2020-01-12 20:00:00 1.8 4 Este 10 Este 0 -- -- 83
2020-01-12 19:00:00 2.8 0 Calma 2 Este 0 -- -- 73
2020-01-12 18:00:00 7 0 Calma 9 Noroeste 0 -- -- 60
2020-01-12 17:00:00 8 6 Norte 9 Norte 0 -- -- 53
2020-01-12 16:00:00 8 4 Nordeste 10 Este 0 -- -- 59
2020-01-12 15:00:00 7.4 5 Este 10 Nordeste 0 -- -- 73
2020-01-12 14:00:00 6.5 6 Nordeste 12 Nordeste 0 -- -- 77
2020-01-12 13:00:00 5.3 4 Norte 8 Norte 0 -- -- 83
2020-01-12 12:00:00 3.4 3 Nordeste 5 Nordeste 0 -- -- 89
2020-01-12 11:00:00 0.5 0 Calma 4 Este 0.2 -- -- 97
2020-01-12 10:00:00 -3.5 3 Nordeste 5 Nordeste 0 -- -- 97
2020-01-12 09:00:00 -4.8 2 Nordeste 5 Este 0 -- -- 96
2020-01-12 08:00:00 -5 0 Calma 3 Noroeste 0 -- -- 96
2020-01-12 07:00:00 -2.9 2 Oeste 10 Sudeste 0 -- -- 96
2020-01-12 06:00:00 -4.8 2 Este 4 Oeste 0 -- -- 96
2020-01-12 05:00:00 -3.3 2 Sudeste 7 Sudeste 0 -- -- 96
2020-01-12 04:00:00 -2.6 5 Sudeste 9 Sudeste 0 -- -- 98
2020-01-12 03:00:00 -3 3 Sudeste 6 Sudeste 0 -- -- 97
2020-01-12 02:00:00 -3.2 0 Calma 3 Este 0 -- -- 97
2020-01-12 01:00:00 -2.3 4 Este 5 Este 0 -- -- 97
2020-01-12 00:00:00 -2.5 2 Este 4 Este 0 -- -- 97
2020-01-11 23:00:00 -1.7 2 Oeste 4 Oeste 0 -- -- 96
2020-01-11 22:00:00 -1 0 Calma 4 Este 0 -- -- 96
2020-01-11 21:00:00 0.4 3 Este 10 Este 0 -- -- 94
2020-01-11 20:00:00 1.6 5 Este 10 Este 0 -- -- 92
2020-01-11 19:00:00 2.5 9 Este 10 Este 0 -- -- 89
2020-01-11 18:00:00 5.2 7 Nordeste 8 Nordeste 0 -- -- 81
2020-01-11 17:00:00 6.6 6 Nordeste 13 Nordeste 0 -- -- 77
2020-01-11 16:00:00 6.2 10 Nordeste 16 Nordeste 0 -- -- 78
2020-01-11 15:00:00 5.3 12 Nordeste 19 Nordeste 0 -- -- 83
2020-01-11 14:00:00 4.3 16 Nordeste 19 Nordeste 0 -- -- 90
2020-01-11 13:00:00 2.8 12 Nordeste 15 Nordeste 0 -- -- 96
2020-01-11 12:00:00 1 10 Nordeste 15 Nordeste 0 -- -- 99
2020-01-11 11:00:00 -0.8 9 Nordeste 13 Este 0.2 -- -- 99
2020-01-11 10:00:00 -1.4 5 Nordeste 9 Nordeste 0 -- -- 98
2020-01-11 09:00:00 -2.7 5 Nordeste 9 Este 0 -- -- 97
2020-01-11 08:00:00 -2.7 5 Este 8 Este 0 -- -- 97
2020-01-11 07:00:00 -2.6 4 Este 7 Este 0 -- -- 97
2020-01-11 06:00:00 -2.4 3 Nordeste 6 Este 0 -- -- 97
2020-01-11 05:00:00 -2.8 3 Nordeste 7 Nordeste 0 -- -- 96
2020-01-11 04:00:00 -2.6 4 Norte 10 Este 0 -- -- 93
2020-01-11 03:00:00 -0.7 7 Este 14 Este 0 -- -- 95
2020-01-11 02:00:00 -1.1 10 Este 13 Este 0 -- -- 97
2020-01-11 01:00:00 -1.1 7 Nordeste 12 Este 0 -- -- 95
2020-01-11 00:00:00 -1 5 Este 8 Nordeste 0 -- -- 96
2020-01-10 23:00:00 -0.2 2 Norte 10 Este 0 -- -- 93
2020-01-10 22:00:00 1.2 8 Este 14 Este 0 -- -- 91
2020-01-10 21:00:00 1.5 10 Este 15 Este 0 -- -- 91
2020-01-10 20:00:00 1.7 8 Este 13 Nordeste 0 -- -- 89
2020-01-10 19:00:00 3.2 12 Nordeste 17 Este 0 -- -- 82
2020-01-10 18:00:00 5.8 17 Nordeste 27 Nordeste 0 -- -- 74
2020-01-10 17:00:00 7.1 22 Nordeste 28 Nordeste 0 -- -- 65
2020-01-10 16:00:00 7.4 21 Nordeste 29 Este 0 -- -- 65
2020-01-10 15:00:00 7.3 21 Nordeste 33 Nordeste 0 -- -- 65
2020-01-10 14:00:00 6.7 21 Nordeste 31 Este 0 -- -- 72
2020-01-10 13:00:00 5.7 18 Nordeste 32 Nordeste 0 -- -- 77
2020-01-10 12:00:00 4.1 16 Nordeste 22 Nordeste 0 -- -- 83
2020-01-10 11:00:00 1.1 3 Norte 5 Norte 0 -- -- 99
2020-01-10 10:00:00 -1.7 2 Nordeste 6 Este 0 -- -- 98
2020-01-10 09:00:00 -2.3 4 Sudeste 8 Este 0 -- -- 98
2020-01-10 08:00:00 -2.7 3 Este 6 Este 0 -- -- 97
2020-01-10 07:00:00 -1.3 4 Sudeste 8 Sudeste 0 -- -- 98
2020-01-10 06:00:00 -1 3 Sudeste 6 Sudeste 0 -- -- 97
2020-01-10 05:00:00 -0.8 2 Este 5 Sudeste 0 -- -- 97
2020-01-10 04:00:00 0.6 4 Oeste 5 Oeste 0.2 -- -- 96
2020-01-10 03:00:00 1 5 Sudoeste 9 Oeste 0 -- -- 95
2020-01-10 02:00:00 1.7 3 Sudoeste 15 Oeste 0 -- -- 94
2020-01-10 01:00:00 2.3 7 Oeste 15 Noroeste 0 -- -- 94
2020-01-10 00:00:00 3.4 3 Sudoeste 16 Oeste 0 -- -- 94
2020-01-09 23:00:00 5 9 Oeste 18 Noroeste 0 -- -- 96
2020-01-09 22:00:00 5 10 Oeste 14 Oeste 0 -- -- 96
2020-01-09 21:00:00 5.2 4 Sudoeste 12 Oeste 0 -- -- 94
2020-01-09 20:00:00 7.3 5 Oeste 36 Oeste 0 -- -- 89
2020-01-09 19:00:00 9.1 25 Noroeste 38 Noroeste 0 -- -- 86
2020-01-09 18:00:00 10.8 18 Oeste 32 Oeste 0 -- -- 84
2020-01-09 17:00:00 11.4 16 Sudoeste 27 Sudoeste 0 -- -- 86
2020-01-09 16:00:00 11 13 Oeste 23 Sur 0 -- -- 87
2020-01-09 15:00:00 9.8 14 Sudoeste 24 Sudoeste 0 -- -- 90
2020-01-09 14:00:00 11 13 Sudoeste 19 Sudoeste 0 -- -- 84
2020-01-09 13:00:00 9.2 9 Sudoeste 20 Oeste 0 -- -- 89
2020-01-09 12:00:00 8.4 11 Sudoeste 17 Sudoeste 0 -- -- 93
2020-01-09 11:00:00 6.5 6 Sudoeste 11 Sudoeste 0 -- -- 89
2020-01-09 10:00:00 3.5 4 Noroeste 9 Sur 0 -- -- 93
2020-01-09 09:00:00 2.9 6 Sur 12 Sur 0 -- -- 90
2020-01-09 08:00:00 0 0 Calma 9 Sur 0 -- -- 97
2020-01-09 07:00:00 -1.2 2 Sur 4 Sur 0 -- -- 97
2020-01-09 06:00:00 -0.8 0 Calma 11 Noroeste 0 -- -- 95
2020-01-09 05:00:00 0 4 Sudeste 10 Sudeste 0 -- -- 97
2020-01-09 04:00:00 -0.9 2 Sur 6 Sudeste 0 -- -- 97
2020-01-09 03:00:00 0.1 0 Calma 12 Sudeste 0 -- -- 96
2020-01-09 02:00:00 0.4 7 Sudeste 9 Sudeste 0 -- -- 97
2020-01-09 01:00:00 0.4 4 Sur 6 Sur 0 -- -- 97
2020-01-09 00:00:00 0.6 2 Sudoeste 6 Sur 0 -- -- 95
2020-01-08 23:00:00 1.4 5 Sur 6 Sur 0 -- -- 94
2020-01-08 22:00:00 2 4 Sudoeste 8 Sudoeste 0 -- -- 94
2020-01-08 21:00:00 2.6 5 Sudoeste 10 Sudoeste 0 -- -- 90
2020-01-08 20:00:00 3.5 2 Este 8 Oeste 0 -- -- 81
2020-01-08 19:00:00 5.2 0 Calma 5 Sudeste 0 -- -- 73
2020-01-08 18:00:00 8.5 4 Nordeste 9 Norte 0 -- -- 65
2020-01-08 17:00:00 10.3 5 Nordeste 12 Norte 0 -- -- 50
2020-01-08 16:00:00 10.4 11 Nordeste 14 Nordeste 0 -- -- 52
2020-01-08 15:00:00 9.7 9 Nordeste 14 Nordeste 0 -- -- 63
2020-01-08 14:00:00 7.8 8 Nordeste 14 Nordeste 0 -- -- 73
2020-01-08 13:00:00 5.5 6 Nordeste 10 Norte 0 -- -- 86
2020-01-08 12:00:00 1.7 6 Norte 9 Norte 0 -- -- 95
2020-01-08 11:00:00 -0.9 0 Calma 3 Este 0 -- -- 97
2020-01-08 10:00:00 -3.5 0 Calma 2 Norte 0 -- -- 98
2020-01-08 09:00:00 -4 0 Calma -- -- 0 -- -- 97
2020-01-08 08:00:00 -4.3 0 Calma -- -- 0 -- -- 99
2020-01-08 07:00:00 -4.7 0 Calma -- -- 0 -- -- 98
2020-01-08 06:00:00 -4.7 0 Calma -- -- 0 -- -- 99
2020-01-08 05:00:00 -4.6 0 Calma -- -- 0 -- -- 99
2020-01-08 04:00:00 -4.2 0 Calma 4 Nordeste 0 -- -- 99
2020-01-08 03:00:00 -3.2 3 Nordeste 5 Nordeste 0 -- -- 99
2020-01-08 02:00:00 -2.8 4 Este 8 Este 0 -- -- 99
2020-01-08 01:00:00 -2.1 3 Este 4 Este 0 -- -- 99
2020-01-08 00:00:00 -1.1 2 Este 6 Sudeste 0 -- -- 98
2020-01-07 23:00:00 -1.2 0 Calma 5 Sudeste 0 -- -- 98
2020-01-07 22:00:00 -0.9 0 Calma 4 Sudoeste 0 -- -- 96
2020-01-07 21:00:00 0.2 3 Oeste 3 Oeste 0 -- -- 96
2020-01-07 20:00:00 1.9 2 Sudoeste 4 Oeste 0 -- -- 94
2020-01-07 19:00:00 3.6 3 Sudoeste 7 Noroeste 0 -- -- 91
2020-01-07 18:00:00 7.3 3 Noroeste 5 Oeste 0 -- -- 80
2020-01-07 17:00:00 8.1 5 Oeste 9 Oeste 0 -- -- 79
2020-01-07 16:00:00 8 5 Noroeste 9 Noroeste 0 -- -- 81
2020-01-07 15:00:00 6.1 3 Norte 8 Norte 0 -- -- 89
2020-01-07 14:00:00 3.1 4 Norte 13 Noroeste 0 -- -- 100
2020-01-07 13:00:00 1.3 2 Norte 5 Norte 0 -- -- 100
2020-01-07 12:00:00 -1.1 0 Calma -- -- 0.2 -- -- 100
2020-01-07 11:00:00 -1.8 0 Calma -- -- 0 -- -- 100
2020-01-07 10:00:00 -2.3 0 Calma -- -- 0 -- -- 100
2020-01-07 09:00:00 -2.6 0 Calma -- -- 0 -- -- 99
2020-01-07 08:00:00 -2.3 0 Calma -- -- 0 -- -- 100
2020-01-07 07:00:00 -2.4 0 Calma -- -- 0 -- -- 100
2020-01-07 06:00:00 -2.3 2 Este 9 Nordeste 0 -- -- 100
2020-01-07 05:00:00 -2 6 Nordeste 10 Nordeste 0 -- -- 99
2020-01-07 04:00:00 -2.1 6 Nordeste 13 Nordeste 0 -- -- 99
2020-01-07 03:00:00 -3.1 3 Nordeste 8 Norte 0 -- -- 98
2020-01-07 02:00:00 -2.4 3 Nordeste 7 Este 0 -- -- 97
2020-01-07 01:00:00 -2.2 3 Nordeste 5 Este 0 -- -- 97
2020-01-07 00:00:00 -1.1 0 Calma 4 Sudeste 0 -- -- 98
2020-01-06 23:00:00 0 0 Calma 6 Sudeste 0 -- -- 98
2020-01-06 22:00:00 0.3 3 Sudeste 5 Sudeste 0 -- -- 97
2020-01-06 21:00:00 0.3 0 Calma 2 Este 0 -- -- 96
2020-01-06 20:00:00 1.4 0 Calma 4 Noroeste 0 -- -- 95
2020-01-06 19:00:00 3.4 2 Sur 7 Sur 0 -- -- 89
2020-01-06 18:00:00 5.9 4 Sudoeste 9 Noroeste 0 -- -- 85
2020-01-06 17:00:00 8.1 3 Oeste 11 Noroeste 0 -- -- 78
2020-01-06 16:00:00 7.6 8 Noroeste 13 Noroeste 0 -- -- 80
2020-01-06 15:00:00 6.5 9 Noroeste 15 Noroeste 0 -- -- 83
2020-01-06 14:00:00 6.1 6 Noroeste 10 Noroeste 0 -- -- 95
2020-01-06 13:00:00 3.6 4 Norte 11 Este 0 -- -- 100
2020-01-06 12:00:00 -0.3 3 Este 5 Este 0 -- -- 100
2020-01-06 11:00:00 -2.5 0 Calma -- -- 0 -- -- 100
2020-01-06 10:00:00 -3.5 0 Calma 0 Calma 0 -- -- 99